Item Display Status Humidity-temperature Sensor

Elevation Above Sea Level: 3 m

 

Deployed Sensor

  • Serial Number: 20256956
  • NDBC Property Number: 42272
  • Start Date: 11/19/2018 (14:39:24 Z)
  • End Date: Currently Active
Relative Humidity [%]     6 entries per hour
Showing data from 11/12/2019 (07:00:00 Z) to 11/11/2019 (00:00:01 Z)
Previous Next [ Day | 3-Days | 7-Days ]
First Last
Prev [ Day | 3-Days | 7-Days ] Next
First Last

Start Time:     :
End Time:     :     
Time (in GMT) :00 :50 :40 :30 :20 :10
Previous Next [ Day | 3-Days | 7-Days ]
First Last
Prev [ Day | 3-Days | 7-Days ] Next
First Last


123 => good data
MM => data is determined as missing
-- => data not received/configured
Back to Top Back to Top
11/12/2019 07:00 to 6:10 88.47 87.79 88.17 87.70 87.38 87.74
11/12/2019 06:00 to 5:10 89.04 89.57 89.47 88.68 88.01 89.28
11/12/2019 05:00 to 4:10 88.98 87.62 88.21 89.83 89.55 89.06
11/12/2019 04:00 to 3:10 90.60 90.44 90.48 90.72 91.51 91.75
11/12/2019 03:00 to 2:10 91.61 92.71 92.58 90.96 89.34 90.80
11/12/2019 02:00 to 1:10 92.95 90.20 91.31 91.63 91.13 89.14
11/12/2019 01:00 to 0:10 88.45 88.70 90.11 90.32 90.86 90.80
11/12/2019 00:00 to 23:10 90.54 88.07 88.09 89.18 89.53 88.51
11/11/2019 23:00 to 22:10 87.83 87.68 89.97 92.83 92.48 93.41
11/11/2019 22:00 to 21:10 91.21 89.10 90.28 89.49 90.28 92.34
11/11/2019 21:00 to 20:10 92.32 91.69 90.09 91.01 90.74 89.73
11/11/2019 20:00 to 19:10 90.88 90.44 89.49 89.43 90.98 90.72
11/11/2019 19:00 to 18:10 89.57 89.85 90.44 90.88 90.30 90.07
11/11/2019 18:00 to 17:10 89.55 89.85 90.96 92.06 93.01 92.65
11/11/2019 17:00 to 16:10 92.14 91.31 91.11 90.40 89.73 90.11
11/11/2019 16:00 to 15:10 91.01 91.98 93.13 91.94 91.23 91.05
11/11/2019 15:00 to 14:10 88.29 90.30 91.61 94.29 95.66 94.39
11/11/2019 14:00 to 13:10 91.65 90.07 89.34 91.03 93.92 95.38
11/11/2019 13:00 to 12:10 96.45 98.60 99.09 99.33 99.37 --
11/11/2019 12:00 to 11:10 -- -- -- -- -- 99.21
11/11/2019 11:00 to 10:10 97.42 96.76 87.52 87.40 89.83 91.67
11/11/2019 10:00 to 9:10 91.43 91.65 91.61 93.11 92.79 91.69
11/11/2019 09:00 to 8:10 90.09 89.65 86.79 85.68 84.50 85.52
11/11/2019 08:00 to 7:10 86.73 88.13 89.57 88.27 87.34 87.74
11/11/2019 07:00 to 6:10 87.56 87.18 88.07 87.87 88.23 87.34
11/11/2019 06:00 to 5:10 85.25 84.83 85.74 88.47 88.64 89.08
11/11/2019 05:00 to 4:10 88.88 88.45 88.60 87.87 88.98 89.04
11/11/2019 04:00 to 3:10 85.66 83.96 85.70 88.86 90.28 91.03
11/11/2019 03:00 to 2:10 91.71 90.86 90.86 88.49 89.47 88.53
11/11/2019 02:00 to 1:10 86.81 86.81 86.73 88.01 88.45 88.45
11/11/2019 01:00 to 0:10 89.67 88.41 88.13 88.27 88.27 87.72

 

 

 

Air Temperature [°C]     6 entries per hour
Showing data from 11/12/2019 (07:00:00 Z) to 11/11/2019 (00:00:01 Z)
Previous Next [ Day | 3-Days | 7-Days ]
First Last
Prev [ Day | 3-Days | 7-Days ] Next
First Last

Start Time:     :
End Time:     :     
Time (in GMT) :00 :50 :40 :30 :20 :10
Previous Next [ Day | 3-Days | 7-Days ]
First Last
Prev [ Day | 3-Days | 7-Days ] Next
First Last


123 => good data
MM => data is determined as missing
-- => data not received/configured
Back to Top Back to Top
11/12/2019 07:00 to 6:10 21.57 21.65 21.65 21.74 21.70 21.83
11/12/2019 06:00 to 5:10 21.57 21.67 21.53 21.61 21.56 21.71
11/12/2019 05:00 to 4:10 21.76 21.74 21.73 21.72 21.66 21.81
11/12/2019 04:00 to 3:10 21.85 21.83 21.71 21.74 21.80 21.81
11/12/2019 03:00 to 2:10 21.74 21.75 21.86 21.91 21.89 21.83
11/12/2019 02:00 to 1:10 21.95 21.84 21.92 21.89 21.94 21.86
11/12/2019 01:00 to 0:10 21.92 21.74 21.64 21.70 21.71 21.72
11/12/2019 00:00 to 23:10 21.83 21.80 21.80 21.85 21.78 21.88
11/11/2019 23:00 to 22:10 22.07 21.94 21.85 21.51 21.61 21.52
11/11/2019 22:00 to 21:10 21.79 21.91 21.82 21.79 21.69 21.66
11/11/2019 21:00 to 20:10 21.63 21.91 21.81 21.82 21.87 21.85
11/11/2019 20:00 to 19:10 21.79 21.78 21.76 21.69 21.76 21.85
11/11/2019 19:00 to 18:10 21.77 21.76 21.70 21.92 21.69 21.79
11/11/2019 18:00 to 17:10 21.79 21.64 21.50 21.63 21.59 21.57
11/11/2019 17:00 to 16:10 21.57 21.57 21.56 21.45 21.49 21.49
11/11/2019 16:00 to 15:10 21.58 21.41 21.62 21.73 21.50 21.53
11/11/2019 15:00 to 14:10 21.50 21.48 21.41 21.26 21.34 21.32
11/11/2019 14:00 to 13:10 21.39 21.48 21.44 21.15 20.95 20.92
11/11/2019 13:00 to 12:10 20.75 20.57 20.37 20.14 20.06 19.80
11/11/2019 12:00 to 11:10 19.85 19.71 19.55 19.67 19.69 20.27
11/11/2019 11:00 to 10:10 20.26 20.84 21.69 21.32 21.26 21.24
11/11/2019 10:00 to 9:10 21.37 21.18 21.21 21.32 21.29 21.58
11/11/2019 09:00 to 8:10 21.42 21.54 21.51 21.59 21.44 21.51
11/11/2019 08:00 to 7:10 21.44 21.36 21.34 21.25 21.29 21.23
11/11/2019 07:00 to 6:10 21.67 21.64 21.66 21.65 21.70 21.83
11/11/2019 06:00 to 5:10 21.77 21.90 21.63 21.76 21.71 21.67
11/11/2019 05:00 to 4:10 21.70 21.64 21.68 21.61 21.79 21.84
11/11/2019 04:00 to 3:10 21.96 21.76 21.32 21.34 21.47 21.26
11/11/2019 03:00 to 2:10 21.40 21.48 21.71 21.82 21.75 22.03
11/11/2019 02:00 to 1:10 21.92 21.82 21.78 21.62 21.40 21.60
11/11/2019 01:00 to 0:10 21.58 21.81 21.71 21.72 21.70 21.65